Time;durP1;ratioP1;P1;durP2;ratioP2;P2;SDS_P1;SDS_P2;PMS_P1;PMS_P2;Temp;Humidity;BMP_temperature;BMP_pressure;BME280_temperature;BME280_humidity;BME280_pressure;Samples;Min_cycle;Max_cycle;Signal;HPM_P1;HPM_P2
2021/04/02 00:01:00;;;;;;;12.80;8.03;;;;;;;;;;2032997;29;20645;-56
2021/04/02 00:02:02;;;;;;;13.53;8.27;;;;;;;;;;2037159;29;20185;-57
2021/04/02 00:03:10;;;;;;;14.30;8.50;;;;;;;;;;2032917;29;20187;-58
2021/04/02 00:04:10;;;;;;;15.97;8.33;;;;;;;;;;2024109;29;20191;-57
2021/04/02 00:05:12;;;;;;;12.67;8.27;;;;;;;;;;2031239;29;20179;-56
2021/04/02 00:06:12;;;;;;;16.30;8.10;;;;;;;;;;2042898;29;20192;-60
2021/04/02 00:07:12;;;;;;;14.13;8.83;;;;;;;;;;2035798;29;20263;-58
2021/04/02 00:08:13;;;;;;;11.17;8.50;;;;;;;;;;2025826;29;20275;-58
2021/04/02 00:09:13;;;;;;;10.10;8.07;;;;;;;;;;2035858;29;20698;-57
2021/04/02 00:10:16;;;;;;;11.13;8.63;;;;;;;;;;2037618;29;20675;-58
2021/04/02 00:11:16;;;;;;;17.00;8.40;;;;;;;;;;2041791;29;20172;-54
2021/04/02 00:12:16;;;;;;;12.87;8.53;;;;;;;;;;2041714;29;20271;-59
2021/04/02 00:13:18;;;;;;;12.97;8.03;;;;;;;;;;2041438;29;20375;-60
2021/04/02 00:14:19;;;;;;;10.90;8.27;;;;;;;;;;2040466;29;20203;-56
2021/04/02 00:15:20;;;;;;;15.33;8.87;;;;;;;;;;2035572;29;20177;-60
2021/04/02 00:16:20;;;;;;;16.07;8.53;;;;;;;;;;2039084;29;20303;-59
2021/04/02 00:17:20;;;;;;;9.40;8.37;;;;;;;;;;2038202;29;20275;-60
2021/04/02 00:18:22;;;;;;;14.10;7.80;;;;;;;;;;2033874;29;20173;-56
2021/04/02 00:19:22;;;;;;;13.60;7.40;;;;;;;;;;2039562;29;20299;-58
2021/04/02 00:20:22;;;;;;;15.77;8.57;;;;;;;;;;2049553;29;20547;-59
2021/04/02 00:21:23;;;;;;;15.27;8.53;;;;;;;;;;2043290;29;20195;-56
2021/04/02 00:22:23;;;;;;;14.20;8.43;;;;;;;;;;2038386;29;20180;-58
2021/04/02 00:23:24;;;;;;;13.40;8.23;;;;;;;;;;2033092;29;20271;-59
2021/04/02 00:24:24;;;;;;;14.23;9.07;;;;;;;;;;2036844;29;20188;-58
2021/04/02 00:25:24;;;;;;;14.73;9.53;;;;;;;;;;2041905;29;20186;-58
2021/04/02 00:26:25;;;;;;;15.40;8.37;;;;;;;;;;2040880;29;20171;-59
2021/04/02 00:27:25;;;;;;;13.93;8.57;;;;;;;;;;2033375;29;20208;-55
2021/04/02 00:28:26;;;;;;;13.70;8.53;;;;;;;;;;2038170;29;20186;-57
2021/04/02 00:29:26;;;;;;;14.27;8.73;;;;;;;;;;2035238;29;20200;-58
2021/04/02 00:30:30;;;;;;;14.10;8.57;;;;;;;;;;2030905;29;20219;-57
2021/04/02 00:31:31;;;;;;;11.73;9.63;;;;;;;;;;2041409;29;20210;-55
2021/04/02 00:32:31;;;;;;;13.37;8.57;;;;;;;;;;2041074;29;20211;-58
2021/04/02 00:33:32;;;;;;;15.03;8.87;;;;;;;;;;2040867;29;20180;-58
2021/04/02 00:34:32;;;;;;;16.60;8.67;;;;;;;;;;2039440;29;20183;-59
2021/04/02 00:35:32;;;;;;;14.93;9.27;;;;;;;;;;2038314;29;20176;-56
2021/04/02 00:36:32;;;;;;;21.10;11.07;;;;;;;;;;2027215;29;20211;-55
2021/04/02 00:37:33;;;;;;;20.07;11.40;;;;;;;;;;2036795;29;20574;-58
2021/04/02 00:38:33;;;;;;;23.07;10.83;;;;;;;;;;2038798;29;20214;-58
2021/04/02 00:39:33;;;;;;;17.03;10.80;;;;;;;;;;2041337;29;20176;-56
2021/04/02 00:40:44;;;;;;;16.93;10.63;;;;;;;;;;2035157;29;20244;-57
2021/04/02 00:41:44;;;;;;;16.53;9.40;;;;;;;;;;2034565;29;20172;-60
2021/04/02 00:42:46;;;;;;;13.90;8.27;;;;;;;;;;2038180;29;20184;-60
2021/04/02 00:43:49;;;;;;;13.03;8.00;;;;;;;;;;2041022;29;20211;-58
2021/04/02 00:44:49;;;;;;;18.03;8.83;;;;;;;;;;2035709;29;20192;-59
2021/04/02 00:45:50;;;;;;;12.73;8.47;;;;;;;;;;2033248;29;20195;-56
2021/04/02 00:46:50;;;;;;;16.40;8.90;;;;;;;;;;2033089;29;20179;-57
2021/04/02 00:47:51;;;;;;;11.40;8.63;;;;;;;;;;2032914;29;20306;-58
2021/04/02 00:48:51;;;;;;;15.27;9.83;;;;;;;;;;2041277;29;20192;-55
2021/04/02 00:49:52;;;;;;;13.80;9.63;;;;;;;;;;2041944;29;20571;-58
2021/04/02 00:50:55;;;;;;;14.57;8.90;;;;;;;;;;2027069;29;20592;-58
2021/04/02 00:51:55;;;;;;;13.90;8.70;;;;;;;;;;2033670;29;20251;-60
2021/04/02 00:52:56;;;;;;;19.87;9.57;;;;;;;;;;2038551;29;20179;-59
2021/04/02 00:53:57;;;;;;;19.87;10.70;;;;;;;;;;2025069;29;20174;-57
2021/04/02 00:54:57;;;;;;;14.77;9.20;;;;;;;;;;2026476;29;20280;-59
2021/04/02 00:55:59;;;;;;;18.90;10.33;;;;;;;;;;2034035;29;20196;-58
2021/04/02 00:56:59;;;;;;;16.23;9.37;;;;;;;;;;2036381;29;20184;-58
2021/04/02 00:58:00;;;;;;;13.57;9.47;;;;;;;;;;2034197;29;20216;-57
2021/04/02 00:59:00;;;;;;;19.87;10.20;;;;;;;;;;2039178;29;20207;-58
2021/04/02 01:00:02;;;;;;;19.50;10.73;;;;;;;;;;2031780;29;20184;-58
2021/04/02 01:01:06;;;;;;;14.07;9.50;;;;;;;;;;2019419;29;20667;-57
2021/04/02 01:02:08;;;;;;;17.63;9.60;;;;;;;;;;2024859;29;20674;-59
2021/04/02 01:03:10;;;;;;;16.47;9.73;;;;;;;;;;2014792;29;20190;-61
2021/04/02 01:04:11;;;;;;;21.40;11.20;;;;;;;;;;2017557;29;20187;-58
2021/04/02 01:05:16;;;;;;;13.03;9.63;;;;;;;;;;2032566;29;20180;-58
2021/04/02 01:06:22;;;;;;;15.33;10.57;;;;;;;;;;2039930;29;20561;-59
2021/04/02 01:07:23;;;;;;;15.63;10.67;;;;;;;;;;2044744;28;20175;-58
2021/04/02 01:08:25;;;;;;;15.00;9.47;;;;;;;;;;2032476;29;20204;-56
2021/04/02 01:09:26;;;;;;;18.50;11.43;;;;;;;;;;2036872;29;20215;-59
2021/04/02 01:10:26;;;;;;;16.10;10.30;;;;;;;;;;2032972;29;20180;-60
2021/04/02 01:11:27;;;;;;;14.13;10.07;;;;;;;;;;2028690;29;20227;-56
2021/04/02 01:12:32;;;;;;;18.27;10.67;;;;;;;;;;2032097;29;20181;-58
2021/04/02 01:13:35;;;;;;;20.47;10.73;;;;;;;;;;2043247;29;20208;-56
2021/04/02 01:14:35;;;;;;;19.60;10.70;;;;;;;;;;2046801;28;20186;-58
2021/04/02 01:15:49;;;;;;;16.23;9.73;;;;;;;;;;2036819;29;20684;-58
2021/04/02 01:16:49;;;;;;;17.87;11.63;;;;;;;;;;2032558;29;20226;-59
2021/04/02 01:17:52;;;;;;;15.47;11.37;;;;;;;;;;2040319;29;20714;-58
2021/04/02 01:18:57;;;;;;;22.90;11.23;;;;;;;;;;2040491;29;20206;-56
2021/04/02 01:19:59;;;;;;;14.03;10.37;;;;;;;;;;2032343;29;20302;-58
2021/04/02 01:21:00;;;;;;;23.70;11.93;;;;;;;;;;2023512;29;20181;-58
2021/04/02 01:22:02;;;;;;;20.50;10.73;;;;;;;;;;2028251;29;20185;-63
2021/04/02 01:23:05;;;;;;;18.57;11.23;;;;;;;;;;2046786;29;20298;-58
2021/04/02 01:24:06;;;;;;;19.00;12.33;;;;;;;;;;2035675;29;20598;-56
2021/04/02 01:25:18;;;;;;;16.93;10.83;;;;;;;;;;2040571;29;20187;-57
2021/04/02 01:26:27;;;;;;;16.67;10.73;;;;;;;;;;2033178;29;20171;-57
2021/04/02 01:27:47;;;;;;;18.73;10.50;;;;;;;;;;2033374;29;20279;-58
2021/04/02 01:28:51;;;;;;;18.63;11.03;;;;;;;;;;2029824;29;20568;-57
2021/04/02 01:29:57;;;;;;;19.43;10.90;;;;;;;;;;2033609;29;20149;-60
2021/04/02 01:31:01;;;;;;;17.60;10.00;;;;;;;;;;2032704;29;20184;-59
2021/04/02 01:32:02;;;;;;;18.07;10.80;;;;;;;;;;2025382;29;20267;-58
2021/04/02 01:33:05;;;;;;;15.90;10.53;;;;;;;;;;2035618;29;20199;-59
2021/04/02 01:34:06;;;;;;;23.97;11.30;;;;;;;;;;2050805;29;20258;-60
2021/04/02 01:35:10;;;;;;;13.60;8.93;;;;;;;;;;2043621;29;20673;-57
2021/04/02 01:36:11;;;;;;;12.30;9.57;;;;;;;;;;2042739;29;20211;-58
2021/04/02 01:37:26;;;;;;;18.60;10.00;;;;;;;;;;2036064;29;20754;-58
2021/04/02 01:38:27;;;;;;;16.40;9.53;;;;;;;;;;2026442;29;20180;-59
2021/04/02 01:39:28;;;;;;;16.10;9.73;;;;;;;;;;2030307;29;20184;-57
2021/04/02 01:40:31;;;;;;;22.13;10.23;;;;;;;;;;2036357;29;20172;-59
2021/04/02 01:41:33;;;;;;;18.27;9.50;;;;;;;;;;2026209;29;20188;-56
2021/04/02 01:42:35;;;;;;;21.03;9.80;;;;;;;;;;2035684;29;20167;-58
2021/04/02 01:43:41;;;;;;;13.47;9.17;;;;;;;;;;2031577;29;20271;-59
2021/04/02 01:44:41;;;;;;;14.20;9.70;;;;;;;;;;2027718;29;20260;-59
2021/04/02 01:45:44;;;;;;;18.93;10.63;;;;;;;;;;2018177;29;20193;-60
2021/04/02 01:46:45;;;;;;;16.70;10.27;;;;;;;;;;2028145;29;20208;-60
2021/04/02 01:47:46;;;;;;;11.77;9.40;;;;;;;;;;2033551;29;20199;-59
2021/04/02 01:48:50;;;;;;;17.40;10.47;;;;;;;;;;2023376;29;20264;-60
2021/04/02 01:49:52;;;;;;;13.53;9.13;;;;;;;;;;2028010;29;20225;-57
2021/04/02 01:50:53;;;;;;;14.97;9.20;;;;;;;;;;2035763;29;20239;-57
2021/04/02 01:51:55;;;;;;;17.27;9.20;;;;;;;;;;2033319;29;20644;-63
2021/04/02 01:52:56;;;;;;;16.20;8.83;;;;;;;;;;2030535;29;20231;-56
2021/04/02 01:53:57;;;;;;;12.13;9.17;;;;;;;;;;2040952;29;20263;-57
2021/04/02 01:55:02;;;;;;;14.80;9.53;;;;;;;;;;2036514;29;20623;-55
2021/04/02 01:56:06;;;;;;;16.97;9.20;;;;;;;;;;2035087;29;20176;-57
2021/04/02 01:57:10;;;;;;;14.80;9.10;;;;;;;;;;2034703;29;20192;-55
2021/04/02 01:58:13;;;;;;;14.60;9.83;;;;;;;;;;2032866;29;20180;-57
2021/04/02 01:59:17;;;;;;;25.33;10.03;;;;;;;;;;2031444;29;20247;-56
2021/04/02 02:00:31;;;;;;;15.87;8.97;;;;;;;;;;2025453;29;20275;-58
2021/04/02 02:01:36;;;;;;;20.07;9.47;;;;;;;;;;2035641;29;20176;-54
2021/04/02 02:02:39;;;;;;;15.97;9.37;;;;;;;;;;2041287;29;20182;-54
2021/04/02 02:03:41;;;;;;;15.03;9.73;;;;;;;;;;2041734;29;20180;-56
2021/04/02 02:04:46;;;;;;;15.17;9.80;;;;;;;;;;2042683;29;20192;-55
2021/04/02 02:05:48;;;;;;;14.03;9.57;;;;;;;;;;2043398;29;20184;-58
2021/04/02 02:07:05;;;;;;;16.60;9.83;;;;;;;;;;2041230;29;20167;-58
2021/04/02 02:08:15;;;;;;;17.03;10.20;;;;;;;;;;2039975;29;20234;-58
2021/04/02 02:09:24;;;;;;;16.90;10.17;;;;;;;;;;2035149;29;20728;-60
2021/04/02 02:10:25;;;;;;;23.27;11.00;;;;;;;;;;2037158;29;20260;-59
2021/04/02 02:11:28;;;;;;;16.67;11.63;;;;;;;;;;2026857;29;20185;-55
2021/04/02 02:12:31;;;;;;;17.33;10.73;;;;;;;;;;2032250;29;20235;-58
2021/04/02 02:13:44;;;;;;;14.63;10.07;;;;;;;;;;2033385;29;20188;-60
2021/04/02 02:14:52;;;;;;;14.73;10.70;;;;;;;;;;2040800;29;20233;-60
2021/04/02 02:16:04;;;;;;;15.23;10.33;;;;;;;;;;2035629;29;20195;-57
2021/04/02 02:17:08;;;;;;;12.50;10.73;;;;;;;;;;2032710;29;20702;-56
2021/04/02 02:18:10;;;;;;;18.77;9.97;;;;;;;;;;2036262;29;20595;-57
2021/04/02 02:19:15;;;;;;;17.67;10.93;;;;;;;;;;2030982;29;20261;-54
2021/04/02 02:20:16;;;;;;;19.23;11.47;;;;;;;;;;2037011;29;20184;-58
2021/04/02 02:21:17;;;;;;;18.50;11.30;;;;;;;;;;2035901;29;20660;-58
2021/04/02 02:22:21;;;;;;;17.13;11.60;;;;;;;;;;2032769;29;20273;-59
2021/04/02 02:23:31;;;;;;;15.70;11.03;;;;;;;;;;2034080;29;20194;-56
2021/04/02 02:24:31;;;;;;;18.53;11.77;;;;;;;;;;2041430;29;20174;-53
2021/04/02 02:25:32;;;;;;;15.47;10.20;;;;;;;;;;2041361;29;20187;-54
2021/04/02 02:26:39;;;;;;;21.50;11.93;;;;;;;;;;2036004;29;20469;-59
2021/04/02 02:27:41;;;;;;;18.53;11.63;;;;;;;;;;2025394;29;20256;-57
2021/04/02 02:28:41;;;;;;;16.67;11.60;;;;;;;;;;2033591;29;20208;-57
2021/04/02 02:29:42;;;;;;;17.70;11.20;;;;;;;;;;2041538;29;20207;-57
2021/04/02 02:30:43;;;;;;;16.80;10.73;;;;;;;;;;2042296;29;20749;-57
2021/04/02 02:31:54;;;;;;;16.70;12.60;;;;;;;;;;2026577;29;20217;-58
2021/04/02 02:33:02;;;;;;;17.13;11.23;;;;;;;;;;2032509;29;20169;-60
2021/04/02 02:34:06;;;;;;;17.23;11.17;;;;;;;;;;2032622;29;20181;-61
2021/04/02 02:35:15;;;;;;;19.37;12.27;;;;;;;;;;2032012;29;20169;-59
2021/04/02 02:36:17;;;;;;;18.93;10.53;;;;;;;;;;2035562;29;20261;-58
2021/04/02 02:37:18;;;;;;;22.70;11.40;;;;;;;;;;2042183;29;20186;-58
2021/04/02 02:38:23;;;;;;;17.63;11.30;;;;;;;;;;2036301;29;20258;-60
2021/04/02 02:39:24;;;;;;;16.47;10.80;;;;;;;;;;2030964;29;20228;-59
2021/04/02 02:40:32;;;;;;;16.37;10.40;;;;;;;;;;2041524;29;20175;-57
2021/04/02 02:41:34;;;;;;;14.93;10.17;;;;;;;;;;2036508;29;22253;-56
2021/04/02 02:42:36;;;;;;;19.43;10.17;;;;;;;;;;2033706;29;20305;-57
2021/04/02 02:43:38;;;;;;;17.67;10.17;;;;;;;;;;2035433;29;20195;-58
2021/04/02 02:44:39;;;;;;;15.23;9.90;;;;;;;;;;2027737;29;20257;-58
2021/04/02 02:45:39;;;;;;;16.97;10.57;;;;;;;;;;2028210;29;20174;-58
2021/04/02 02:46:41;;;;;;;20.63;9.97;;;;;;;;;;2033822;29;20267;-59
2021/04/02 02:47:43;;;;;;;21.33;11.10;;;;;;;;;;2033013;29;20210;-58
2021/04/02 02:48:47;;;;;;;15.47;9.77;;;;;;;;;;2026381;29;20181;-56
2021/04/02 02:50:59;;;;;;;16.87;9.97;;;;;;;;;;2034424;29;20200;-58
2021/04/02 02:52:03;;;;;;;17.87;9.27;;;;;;;;;;2041921;29;20636;-57
2021/04/02 02:53:07;;;;;;;16.10;9.57;;;;;;;;;;2036600;29;20180;-59
2021/04/02 02:54:11;;;;;;;18.33;9.50;;;;;;;;;;2032996;29;20764;-56
2021/04/02 02:55:12;;;;;;;19.00;9.97;;;;;;;;;;2025892;29;20180;-57
2021/04/02 02:56:14;;;;;;;12.90;9.90;;;;;;;;;;2036981;29;20266;-58
2021/04/02 02:57:16;;;;;;;15.83;9.87;;;;;;;;;;2032866;29;20191;-56
2021/04/02 02:58:20;;;;;;;15.50;9.10;;;;;;;;;;2033366;29;20187;-56
2021/04/02 02:59:23;;;;;;;16.00;9.87;;;;;;;;;;2026154;29;20217;-57
2021/04/02 03:00:25;;;;;;;14.97;8.93;;;;;;;;;;2041784;29;20286;-57
2021/04/02 03:01:27;;;;;;;16.63;9.37;;;;;;;;;;2039191;29;20215;-59
2021/04/02 03:02:27;;;;;;;16.67;9.20;;;;;;;;;;2033348;29;20292;-59
2021/04/02 03:03:28;;;;;;;13.87;9.40;;;;;;;;;;2033123;29;20718;-57
2021/04/02 03:04:36;;;;;;;18.87;9.77;;;;;;;;;;2033530;29;20168;-58
2021/04/02 03:05:38;;;;;;;19.13;9.70;;;;;;;;;;2033715;29;20257;-56
2021/04/02 03:06:40;;;;;;;17.83;10.47;;;;;;;;;;2032647;29;20188;-59
2021/04/02 03:07:41;;;;;;;15.83;9.67;;;;;;;;;;2033554;29;20255;-56
2021/04/02 03:08:48;;;;;;;18.10;9.40;;;;;;;;;;2041207;29;20188;-57
2021/04/02 03:09:53;;;;;;;15.83;9.50;;;;;;;;;;2042411;29;20144;-59
2021/04/02 03:10:54;;;;;;;16.43;9.50;;;;;;;;;;2033026;29;21092;-58
2021/04/02 03:11:56;;;;;;;13.77;9.27;;;;;;;;;;2026130;29;20248;-59
2021/04/02 03:12:57;;;;;;;13.80;9.17;;;;;;;;;;2031076;29;20178;-59
2021/04/02 03:13:59;;;;;;;16.23;9.00;;;;;;;;;;2041209;29;20215;-55
2021/04/02 03:15:03;;;;;;;21.93;10.80;;;;;;;;;;2036343;29;20180;-59
2021/04/02 03:16:04;;;;;;;16.63;9.63;;;;;;;;;;2033380;29;20180;-58
2021/04/02 03:17:05;;;;;;;17.73;10.10;;;;;;;;;;2032994;29;20204;-59
2021/04/02 03:18:11;;;;;;;13.57;9.60;;;;;;;;;;2042040;29;20211;-57
2021/04/02 03:19:14;;;;;;;16.10;9.67;;;;;;;;;;2042073;29;20271;-58
2021/04/02 03:20:16;;;;;;;19.00;10.80;;;;;;;;;;2033037;29;20207;-58
2021/04/02 03:21:17;;;;;;;21.47;11.17;;;;;;;;;;2033295;29;20188;-58
2021/04/02 03:22:20;;;;;;;18.67;10.57;;;;;;;;;;2027461;29;20748;-58
2021/04/02 03:23:35;;;;;;;16.50;10.30;;;;;;;;;;2024376;29;20165;-57
2021/04/02 03:24:37;;;;;;;21.60;10.77;;;;;;;;;;2032859;29;20327;-59
2021/04/02 03:25:39;;;;;;;18.40;11.90;;;;;;;;;;2033145;29;20173;-57
2021/04/02 03:26:47;;;;;;;17.50;11.87;;;;;;;;;;2032735;29;20184;-59
2021/04/02 03:27:48;;;;;;;18.43;10.93;;;;;;;;;;2034106;29;20172;-58
2021/04/02 03:28:55;;;;;;;20.20;12.27;;;;;;;;;;2025814;29;20173;-58
2021/04/02 03:29:57;;;;;;;17.77;12.20;;;;;;;;;;2025250;29;20177;-60
2021/04/02 03:30:58;;;;;;;18.37;12.40;;;;;;;;;;2033950;29;20172;-56
2021/04/02 03:32:10;;;;;;;15.57;11.40;;;;;;;;;;2034299;29;20180;-56
2021/04/02 03:33:17;;;;;;;14.47;11.17;;;;;;;;;;2033311;29;20613;-57
2021/04/02 03:34:23;;;;;;;17.87;11.10;;;;;;;;;;2034246;29;20259;-57
2021/04/02 03:35:25;;;;;;;17.73;10.63;;;;;;;;;;2033697;29;20212;-58
2021/04/02 03:36:26;;;;;;;21.60;11.57;;;;;;;;;;2023486;29;20173;-59
2021/04/02 03:37:32;;;;;;;19.87;10.63;;;;;;;;;;2026395;29;20173;-56
2021/04/02 03:38:39;;;;;;;13.20;10.67;;;;;;;;;;2030438;29;20187;-57
2021/04/02 03:39:41;;;;;;;17.47;10.63;;;;;;;;;;2033017;29;20183;-58
2021/04/02 03:40:45;;;;;;;13.40;10.47;;;;;;;;;;2026083;29;20203;-56
2021/04/02 03:41:51;;;;;;;17.43;10.77;;;;;;;;;;2025184;29;20200;-55
2021/04/02 03:42:54;;;;;;;20.87;11.77;;;;;;;;;;2025949;29;20185;-59
2021/04/02 03:43:54;;;;;;;16.47;10.60;;;;;;;;;;2029355;29;20181;-58
2021/04/02 03:44:57;;;;;;;16.47;10.77;;;;;;;;;;2032613;29;20188;-59
2021/04/02 03:45:59;;;;;;;14.80;10.57;;;;;;;;;;2022292;29;20209;-58
2021/04/02 03:47:01;;;;;;;17.50;11.63;;;;;;;;;;2025320;29;20193;-58
2021/04/02 03:48:03;;;;;;;16.37;11.00;;;;;;;;;;2033360;29;20232;-57
2021/04/02 03:49:06;;;;;;;17.07;11.07;;;;;;;;;;2026507;29;20213;-61
2021/04/02 03:50:13;;;;;;;21.50;11.10;;;;;;;;;;2023960;29;20232;-61
2021/04/02 03:51:17;;;;;;;14.27;10.43;;;;;;;;;;2027728;29;20256;-60
2021/04/02 03:52:38;;;;;;;17.17;10.67;;;;;;;;;;2033866;29;20685;-60
2021/04/02 03:53:41;;;;;;;15.60;11.03;;;;;;;;;;2042315;29;20212;-62
2021/04/02 03:54:43;;;;;;;19.13;11.00;;;;;;;;;;2032799;29;20212;-57
2021/04/02 03:55:47;;;;;;;19.33;10.63;;;;;;;;;;2026574;29;20172;-58
2021/04/02 03:56:51;;;;;;;15.20;11.03;;;;;;;;;;2025803;29;20181;-57
2021/04/02 03:57:57;;;;;;;17.53;11.20;;;;;;;;;;2030600;29;20180;-57
2021/04/02 03:58:59;;;;;;;15.77;10.47;;;;;;;;;;2030713;29;20224;-58
2021/04/02 04:00:06;;;;;;;17.63;10.10;;;;;;;;;;2025737;29;20329;-59
2021/04/02 04:01:16;;;;;;;16.37;9.37;;;;;;;;;;2032267;29;20776;-57
2021/04/02 04:02:17;;;;;;;16.77;9.20;;;;;;;;;;2038853;29;20436;-58
2021/04/02 04:03:19;;;;;;;18.70;10.33;;;;;;;;;;2032395;29;20751;-57
2021/04/02 04:04:24;;;;;;;14.00;9.07;;;;;;;;;;2032931;29;20275;-59
2021/04/02 04:05:25;;;;;;;12.67;8.87;;;;;;;;;;2033146;29;20279;-58
2021/04/02 04:06:28;;;;;;;18.37;8.67;;;;;;;;;;2038886;29;20168;-59
2021/04/02 04:07:32;;;;;;;18.00;9.93;;;;;;;;;;2032705;29;20184;-59
2021/04/02 04:08:32;;;;;;;18.40;9.77;;;;;;;;;;2020246;29;20208;-56
2021/04/02 04:09:39;;;;;;;14.27;9.47;;;;;;;;;;2031610;29;20212;-57
2021/04/02 04:10:48;;;;;;;16.23;8.73;;;;;;;;;;2033424;29;20295;-58
2021/04/02 04:11:49;;;;;;;14.40;8.80;;;;;;;;;;2033104;29;20661;-56
2021/04/02 04:12:57;;;;;;;17.73;9.50;;;;;;;;;;2031708;29;20180;-57
2021/04/02 04:13:58;;;;;;;14.00;8.97;;;;;;;;;;2033033;29;20176;-58
2021/04/02 04:14:59;;;;;;;21.23;8.70;;;;;;;;;;2033205;29;20180;-58
2021/04/02 04:16:04;;;;;;;20.90;8.93;;;;;;;;;;2020060;29;20237;-59
2021/04/02 04:17:06;;;;;;;15.13;8.87;;;;;;;;;;2033037;29;20177;-58
2021/04/02 04:18:09;;;;;;;20.60;8.77;;;;;;;;;;2025454;29;20185;-58
2021/04/02 04:19:10;;;;;;;15.67;8.33;;;;;;;;;;2024577;29;20629;-56
2021/04/02 04:20:18;;;;;;;18.97;8.53;;;;;;;;;;2036036;29;20199;-59
2021/04/02 04:21:48;;;;;;;14.47;8.33;;;;;;;;;;2032031;29;20215;-58
2021/04/02 04:22:56;;;;;;;15.23;8.23;;;;;;;;;;2033953;29;20153;-60
2021/04/02 04:23:57;;;;;;;14.27;8.63;;;;;;;;;;2033078;29;20204;-58
2021/04/02 04:24:58;;;;;;;16.37;8.30;;;;;;;;;;2033693;29;20230;-59
2021/04/02 04:25:59;;;;;;;17.63;8.33;;;;;;;;;;2039716;29;20215;-58
2021/04/02 04:27:01;;;;;;;14.77;8.20;;;;;;;;;;2041950;29;20221;-58
2021/04/02 04:28:02;;;;;;;15.83;7.97;;;;;;;;;;2041580;29;20179;-58
2021/04/02 04:29:03;;;;;;;12.97;7.63;;;;;;;;;;2033211;29;20208;-60
2021/04/02 04:30:04;;;;;;;18.30;8.20;;;;;;;;;;2032189;29;20208;-58
2021/04/02 04:31:07;;;;;;;14.87;9.00;;;;;;;;;;2041899;29;20176;-61
2021/04/02 04:32:09;;;;;;;17.60;7.67;;;;;;;;;;2041078;29;20198;-58
2021/04/02 04:33:10;;;;;;;16.87;8.10;;;;;;;;;;2033291;29;20228;-59
2021/04/02 04:34:11;;;;;;;17.00;7.43;;;;;;;;;;2032643;29;20268;-60
2021/04/02 04:35:15;;;;;;;14.67;7.20;;;;;;;;;;2040642;29;20226;-59
2021/04/02 04:36:17;;;;;;;12.00;7.70;;;;;;;;;;2041566;29;20187;-59
2021/04/02 04:37:19;;;;;;;16.27;7.50;;;;;;;;;;2041838;29;20172;-58
2021/04/02 04:38:19;;;;;;;16.53;8.30;;;;;;;;;;2033160;29;20181;-61
2021/04/02 04:39:21;;;;;;;17.80;7.87;;;;;;;;;;2025267;29;20200;-57
2021/04/02 04:40:22;;;;;;;11.33;7.13;;;;;;;;;;2025379;29;20294;-61
2021/04/02 04:41:24;;;;;;;11.57;7.87;;;;;;;;;;2033035;29;20174;-60
2021/04/02 04:42:25;;;;;;;13.37;7.43;;;;;;;;;;2038193;29;20650;-59
2021/04/02 04:43:25;;;;;;;21.80;7.83;;;;;;;;;;2040225;29;20192;-61
2021/04/02 04:44:26;;;;;;;16.47;8.20;;;;;;;;;;2041704;29;20179;-60
2021/04/02 04:45:27;;;;;;;10.27;6.93;;;;;;;;;;2040813;29;20195;-60
2021/04/02 04:46:27;;;;;;;15.43;6.90;;;;;;;;;;2040626;29;20180;-59
2021/04/02 04:47:28;;;;;;;17.13;7.83;;;;;;;;;;2032570;29;20259;-60
2021/04/02 04:48:30;;;;;;;11.37;6.83;;;;;;;;;;2028377;29;20272;-60
2021/04/02 04:49:30;;;;;;;20.80;8.33;;;;;;;;;;2033033;29;20222;-60
2021/04/02 04:50:30;;;;;;;14.60;7.90;;;;;;;;;;2040871;29;20215;-60
2021/04/02 04:51:33;;;;;;;16.63;7.43;;;;;;;;;;2041631;29;20180;-59
2021/04/02 04:52:36;;;;;;;19.50;8.03;;;;;;;;;;2041712;29;20186;-60
2021/04/02 04:53:38;;;;;;;12.73;7.57;;;;;;;;;;2032083;29;20693;-61
2021/04/02 04:54:38;;;;;;;15.83;8.03;;;;;;;;;;2028769;29;20328;-61
2021/04/02 04:55:40;;;;;;;11.87;8.23;;;;;;;;;;2039379;29;20572;-60
2021/04/02 04:56:40;;;;;;;14.10;8.10;;;;;;;;;;2036507;29;20180;-59
2021/04/02 04:57:42;;;;;;;15.77;8.10;;;;;;;;;;2040345;29;20664;-60
2021/04/02 04:58:44;;;;;;;16.63;8.50;;;;;;;;;;2039477;29;20563;-60
2021/04/02 04:59:46;;;;;;;16.70;8.50;;;;;;;;;;2040091;29;20183;-61
2021/04/02 05:00:47;;;;;;;14.03;7.43;;;;;;;;;;2032322;29;20219;-58
2021/04/02 05:01:48;;;;;;;15.40;8.07;;;;;;;;;;2032824;29;20190;-56
2021/04/02 05:02:49;;;;;;;13.67;8.03;;;;;;;;;;2040884;29;20191;-58
2021/04/02 05:03:50;;;;;;;18.13;8.40;;;;;;;;;;2039951;29;20563;-61
2021/04/02 05:04:51;;;;;;;16.10;8.03;;;;;;;;;;2041302;29;20187;-58
2021/04/02 05:05:53;;;;;;;17.23;7.30;;;;;;;;;;2040389;29;20190;-59
2021/04/02 05:06:59;;;;;;;13.47;7.73;;;;;;;;;;2041334;29;20307;-59
2021/04/02 05:08:03;;;;;;;17.50;7.73;;;;;;;;;;2039096;29;20188;-57
2021/04/02 05:09:04;;;;;;;12.03;8.17;;;;;;;;;;2041355;29;20191;-57
2021/04/02 05:10:04;;;;;;;10.63;8.00;;;;;;;;;;2039716;29;20262;-59
2021/04/02 05:11:06;;;;;;;15.57;8.07;;;;;;;;;;2032197;29;20275;-58
2021/04/02 05:12:07;;;;;;;11.90;8.03;;;;;;;;;;2031945;29;20187;-58
2021/04/02 05:13:08;;;;;;;12.07;8.83;;;;;;;;;;2041164;29;20631;-57
2021/04/02 05:14:09;;;;;;;16.53;8.10;;;;;;;;;;2034964;29;20203;-57
2021/04/02 05:15:10;;;;;;;15.83;7.93;;;;;;;;;;2040516;29;20230;-58
2021/04/02 05:16:10;;;;;;;14.83;7.73;;;;;;;;;;2040202;29;20214;-58
2021/04/02 05:17:11;;;;;;;8.07;7.00;;;;;;;;;;2039220;29;20271;-60
2021/04/02 05:18:11;;;;;;;13.93;8.37;;;;;;;;;;2041184;29;20171;-60
2021/04/02 05:19:13;;;;;;;18.53;8.67;;;;;;;;;;2040270;29;20702;-57
2021/04/02 05:20:14;;;;;;;13.27;9.23;;;;;;;;;;2039542;29;20202;-59
2021/04/02 05:21:14;;;;;;;13.40;6.83;;;;;;;;;;2032288;29;20180;-61
2021/04/02 05:22:14;;;;;;;12.50;7.17;;;;;;;;;;2031928;29;20191;-59
2021/04/02 05:23:16;;;;;;;12.27;7.37;;;;;;;;;;2040120;29;20180;-57
2021/04/02 05:24:16;;;;;;;13.13;7.60;;;;;;;;;;2039413;29;20266;-57
2021/04/02 05:25:16;;;;;;;15.17;7.57;;;;;;;;;;2040400;29;20176;-59
2021/04/02 05:26:17;;;;;;;18.20;7.73;;;;;;;;;;2041052;29;20189;-59
2021/04/02 05:27:17;;;;;;;22.37;7.63;;;;;;;;;;2031671;29;20249;-59
2021/04/02 05:28:17;;;;;;;11.93;6.93;;;;;;;;;;2032296;29;20190;-57
2021/04/02 05:29:18;;;;;;;9.20;6.50;;;;;;;;;;2038900;29;20601;-59
2021/04/02 05:30:18;;;;;;;12.23;6.40;;;;;;;;;;2039846;29;20203;-59
2021/04/02 05:31:19;;;;;;;9.97;6.63;;;;;;;;;;2041144;29;20176;-58
2021/04/02 05:32:19;;;;;;;13.03;6.57;;;;;;;;;;2040860;29;20703;-59
2021/04/02 05:33:19;;;;;;;14.63;7.07;;;;;;;;;;2040622;29;20306;-59
2021/04/02 05:34:19;;;;;;;12.00;6.27;;;;;;;;;;2032505;29;20184;-59
2021/04/02 05:35:20;;;;;;;10.57;6.60;;;;;;;;;;2032102;29;20287;-57
2021/04/02 05:36:20;;;;;;;13.07;7.20;;;;;;;;;;2042428;29;20219;-57
2021/04/02 05:37:20;;;;;;;9.50;6.03;;;;;;;;;;2031748;29;20181;-60
2021/04/02 05:38:21;;;;;;;10.23;7.20;;;;;;;;;;2032814;29;20255;-56
2021/04/02 05:39:21;;;;;;;8.93;5.97;;;;;;;;;;2040309;29;20583;-56
2021/04/02 05:40:21;;;;;;;12.77;6.00;;;;;;;;;;2040955;29;20206;-57
2021/04/02 05:41:31;;;;;;;8.23;5.80;;;;;;;;;;2040323;29;20641;-55
2021/04/02 05:42:32;;;;;;;11.70;5.97;;;;;;;;;;2044748;29;20183;-55
2021/04/02 05:43:36;;;;;;;9.17;6.00;;;;;;;;;;2047827;28;20667;-56
2021/04/02 05:44:37;;;;;;;13.07;6.30;;;;;;;;;;2039810;29;20226;-57
2021/04/02 05:45:38;;;;;;;12.60;6.07;;;;;;;;;;2040951;29;20179;-54
2021/04/02 05:46:40;;;;;;;8.43;6.23;;;;;;;;;;2041212;29;20218;-53
2021/04/02 05:47:41;;;;;;;10.70;6.23;;;;;;;;;;2041025;29;20191;-57
2021/04/02 05:48:43;;;;;;;12.03;5.93;;;;;;;;;;2031419;29;20312;-61
2021/04/02 05:49:44;;;;;;;10.60;6.00;;;;;;;;;;2032065;29;20224;-56
2021/04/02 05:50:45;;;;;;;10.43;5.13;;;;;;;;;;2040970;29;20206;-55
2021/04/02 05:51:46;;;;;;;8.33;5.87;;;;;;;;;;2040950;29;20518;-57
2021/04/02 05:52:48;;;;;;;10.20;6.30;;;;;;;;;;2032717;29;20180;-56
2021/04/02 05:53:49;;;;;;;9.33;5.97;;;;;;;;;;2024383;29;20181;-59
2021/04/02 05:54:49;;;;;;;15.67;7.20;;;;;;;;;;2032506;29;20234;-57
2021/04/02 05:55:50;;;;;;;11.63;6.33;;;;;;;;;;2040940;29;20176;-55
2021/04/02 05:56:51;;;;;;;9.87;6.27;;;;;;;;;;2032612;29;20180;-56
2021/04/02 05:57:52;;;;;;;11.30;5.50;;;;;;;;;;2032604;29;20634;-58
2021/04/02 05:58:53;;;;;;;13.63;6.70;;;;;;;;;;2041142;29;20660;-59
2021/04/02 05:59:55;;;;;;;13.07;6.60;;;;;;;;;;2040776;29;20174;-59
2021/04/02 06:00:55;;;;;;;9.63;5.70;;;;;;;;;;2040965;29;20259;-57
2021/04/02 06:01:56;;;;;;;11.43;7.07;;;;;;;;;;2040544;29;20218;-59
2021/04/02 06:02:57;;;;;;;13.70;6.30;;;;;;;;;;2041256;29;20244;-59
2021/04/02 06:03:58;;;;;;;11.40;5.97;;;;;;;;;;2040651;29;20203;-56
2021/04/02 06:05:00;;;;;;;7.83;6.20;;;;;;;;;;2032510;29;20237;-60
2021/04/02 06:06:00;;;;;;;9.40;5.70;;;;;;;;;;2022866;29;20204;-59
2021/04/02 06:07:00;;;;;;;11.93;5.93;;;;;;;;;;2032089;29;20847;-58
2021/04/02 06:08:00;;;;;;;9.90;6.03;;;;;;;;;;2039386;29;20192;-59
2021/04/02 06:09:01;;;;;;;10.33;5.80;;;;;;;;;;2037672;29;20219;-58
2021/04/02 06:10:01;;;;;;;8.10;5.30;;;;;;;;;;2039265;29;20278;-57